createdAt,value
2022-09-01T00:01:10.739Z,-67.2
2022-09-01T00:06:19.685Z,-67.2
2022-09-01T00:11:26.328Z,-67.8
2022-09-01T00:16:34.176Z,-68.5
2022-09-01T00:21:40.772Z,-67.3
2022-09-01T00:26:47.899Z,-67.5
2022-09-01T00:31:55.301Z,-68.1
2022-09-01T00:37:02.952Z,-67.8
2022-09-01T00:42:10.746Z,-67.9
2022-09-01T00:47:18.871Z,-68.3
2022-09-01T00:52:27.611Z,-68.5
2022-09-01T00:57:35.080Z,-68.1
2022-09-01T01:02:43.957Z,-67.6
2022-09-01T01:07:51.016Z,-67.7
2022-09-01T01:12:59.609Z,-67.5
2022-09-01T01:18:07.183Z,-68.4
2022-09-01T01:23:14.622Z,-68.0
2022-09-01T01:28:22.359Z,-68.0
2022-09-01T01:33:35.277Z,-68.1
2022-09-01T01:38:41.743Z,-68.6
2022-09-01T01:43:49.421Z,-68.4
2022-09-01T01:48:56.614Z,-68.4
2022-09-01T01:54:04.366Z,-68.80001
2022-09-01T01:59:12.415Z,-67.7
2022-09-01T02:04:20.004Z,-68.3
2022-09-01T02:09:28.040Z,-68.2
2022-09-01T02:14:36.081Z,-68.2
2022-09-01T02:19:44.696Z,-68.0
2022-09-01T02:24:52.152Z,-68.3
2022-09-01T02:29:59.713Z,-68.4
2022-09-01T02:35:08.087Z,-68.2
2022-09-01T02:40:16.286Z,-68.4
2022-09-01T02:45:22.786Z,-67.9
2022-09-01T02:50:30.618Z,-67.9
2022-09-01T02:55:38.906Z,-68.1
2022-09-01T03:00:47.024Z,-68.2
2022-09-01T03:05:54.894Z,-68.4
2022-09-01T03:11:02.284Z,-67.9
2022-09-01T03:16:16.516Z,-67.8
2022-09-01T03:21:24.288Z,-67.9
2022-09-01T03:26:31.869Z,-67.7
2022-09-01T03:31:39.733Z,-68.1
2022-09-01T03:36:47.369Z,-68.3
2022-09-01T03:41:54.808Z,-68.2
2022-09-01T03:47:02.729Z,-68.80001
2022-09-01T03:52:10.040Z,-68.80001
2022-09-01T03:57:18.937Z,-67.9
2022-09-01T04:02:26.173Z,-69.0
2022-09-01T04:07:33.977Z,-68.5
2022-09-01T04:12:42.258Z,-68.5
2022-09-01T04:17:50.531Z,-68.6
2022-09-01T04:22:58.227Z,-68.6
2022-09-01T04:28:05.533Z,-69.0
2022-09-01T04:33:14.917Z,-68.4
2022-09-01T04:38:22.300Z,-68.2
2022-09-01T04:43:30.293Z,-68.2
2022-09-01T04:48:38.924Z,-69.2
2022-09-01T04:53:47.410Z,-69.1
2022-09-01T04:58:55.583Z,-69.1
2022-09-01T05:04:03.106Z,-69.1
2022-09-01T05:09:10.645Z,-68.9
2022-09-01T05:14:19.075Z,-69.1
2022-09-01T05:19:27.282Z,-68.9
2022-09-01T05:24:34.166Z,-68.80001
2022-09-01T05:29:43.041Z,-68.6
2022-09-01T05:34:50.505Z,-68.80001
2022-09-01T05:39:58.706Z,-68.4
2022-09-01T05:45:07.365Z,-68.5
2022-09-01T05:50:14.173Z,-69.4
2022-09-01T05:55:21.803Z,-69.1
2022-09-01T06:00:29.800Z,-68.9
2022-09-01T06:05:37.811Z,-68.9
2022-09-01T06:10:46.750Z,-67.9
2022-09-01T06:15:53.787Z,-69.1
2022-09-01T06:21:02.279Z,-68.4
2022-09-01T06:26:08.944Z,-67.9
2022-09-01T06:31:16.638Z,-68.5
2022-09-01T06:36:24.924Z,-68.0
2022-09-01T06:41:32.534Z,-65.9
2022-09-01T06:46:40.251Z,-65.8
2022-09-01T06:51:47.448Z,-65.9
2022-09-01T06:56:54.333Z,-66.4
2022-09-01T07:02:01.810Z,-65.8
2022-09-01T07:07:09.106Z,-66.2
2022-09-01T07:12:16.249Z,-65.8
2022-09-01T07:17:25.349Z,-65.4
2022-09-01T07:22:32.977Z,-66.5
2022-09-01T07:27:40.504Z,-65.8
2022-09-01T07:32:48.081Z,-68.5
2022-09-01T07:37:56.531Z,-67.1
2022-09-01T07:43:03.263Z,-67.2
2022-09-01T07:48:10.519Z,-66.1
2022-09-01T07:53:17.655Z,-67.0
2022-09-01T07:58:25.374Z,-68.0
2022-09-01T08:03:32.736Z,-66.7
2022-09-01T08:08:40.573Z,-66.6
2022-09-01T08:13:49.299Z,-67.1
2022-09-01T08:18:58.000Z,-66.30001
2022-09-01T08:24:05.975Z,-69.2
2022-09-01T08:29:13.181Z,-66.7
2022-09-01T08:34:22.169Z,-67.0
2022-09-01T08:39:28.885Z,-67.0
2022-09-01T08:44:36.288Z,-66.2
2022-09-01T08:49:44.500Z,-65.8
2022-09-01T08:54:52.190Z,-66.30001
2022-09-01T08:59:59.583Z,-68.0
2022-09-01T09:05:06.782Z,-65.8
2022-09-01T09:10:14.641Z,-67.7
2022-09-01T09:15:23.137Z,-67.1
2022-09-01T09:20:31.509Z,-66.6
2022-09-01T09:25:39.292Z,-66.2
2022-09-01T09:30:46.589Z,-67.9
2022-09-01T09:35:54.444Z,-67.3
2022-09-01T09:41:02.363Z,-67.5
2022-09-01T09:46:10.643Z,-66.8
2022-09-01T09:51:18.317Z,-67.4
2022-09-01T09:56:24.583Z,-66.2
2022-09-01T10:01:32.667Z,-66.5
2022-09-01T10:06:41.224Z,-67.1
2022-09-01T10:11:50.009Z,-66.8
2022-09-01T10:16:58.118Z,-67.5
2022-09-01T10:22:05.689Z,-65.9
2022-09-01T10:27:13.468Z,-67.0
2022-09-01T10:32:21.507Z,-67.7
2022-09-01T10:37:28.969Z,-66.8
2022-09-01T10:42:36.395Z,-67.3
2022-09-01T10:47:44.761Z,-67.6
2022-09-01T10:52:52.098Z,-66.0
2022-09-01T10:58:00.302Z,-66.30001
2022-09-01T11:03:06.501Z,-66.9
2022-09-01T11:08:14.922Z,-67.1
2022-09-01T11:13:22.364Z,-66.8
2022-09-01T11:18:30.624Z,-66.0
2022-09-01T11:23:36.582Z,-66.4
2022-09-01T11:28:43.832Z,-67.0
2022-09-01T11:33:50.952Z,-65.8
2022-09-01T11:38:58.643Z,-66.6
2022-09-01T11:44:08.054Z,-67.3
2022-09-01T11:49:16.519Z,-66.9
2022-09-01T11:54:24.555Z,-66.6
2022-09-01T11:59:31.420Z,-66.0
2022-09-01T12:04:39.263Z,-66.9
2022-09-01T12:09:46.825Z,-66.6
2022-09-01T12:14:53.619Z,-67.7
2022-09-01T12:20:01.151Z,-67.3
2022-09-01T12:25:08.673Z,-67.4
2022-09-01T12:30:15.893Z,-65.6
2022-09-01T12:35:23.375Z,-66.8
2022-09-01T12:40:31.322Z,-65.9
2022-09-01T12:45:39.122Z,-66.6
2022-09-01T12:50:46.024Z,-67.0
2022-09-01T12:55:53.854Z,-66.7
2022-09-01T13:01:01.111Z,-66.30001
2022-09-01T13:06:09.423Z,-66.6
2022-09-01T13:11:17.266Z,-66.5
2022-09-01T13:16:24.588Z,-66.5
2022-09-01T13:21:32.345Z,-66.4
2022-09-01T13:26:40.123Z,-66.7
2022-09-01T13:31:48.272Z,-66.5
2022-09-01T13:36:57.193Z,-67.0
2022-09-01T13:42:05.558Z,-66.8
2022-09-01T13:47:13.246Z,-66.7
2022-09-01T13:52:20.829Z,-66.7
2022-09-01T13:57:27.895Z,-66.7
2022-09-01T14:02:35.906Z,-66.9
2022-09-01T14:07:43.433Z,-66.8
2022-09-01T14:12:51.996Z,-66.9
2022-09-01T14:17:59.919Z,-67.1
2022-09-01T14:23:07.801Z,-67.4
2022-09-01T14:28:15.866Z,-67.3
2022-09-01T14:33:22.413Z,-67.2
2022-09-01T14:38:30.128Z,-66.9
2022-09-01T14:43:36.574Z,-67.0
2022-09-01T14:48:43.783Z,-66.9
2022-09-01T14:53:50.521Z,-66.9
2022-09-01T14:58:59.454Z,-66.6
2022-09-01T15:04:06.381Z,-66.6
2022-09-01T15:09:12.586Z,-66.7
2022-09-01T15:14:20.697Z,-66.8
2022-09-01T15:19:26.946Z,-66.9
2022-09-01T15:24:34.287Z,-67.3
2022-09-01T15:29:41.992Z,-67.0
2022-09-01T15:34:52.245Z,-67.0
2022-09-01T15:40:00.142Z,-67.1
2022-09-01T15:45:08.455Z,-66.7
2022-09-01T15:50:16.197Z,-66.8
2022-09-01T15:55:23.148Z,-67.0
2022-09-01T16:00:30.533Z,-67.0
2022-09-01T16:05:38.161Z,-67.0
2022-09-01T16:10:46.125Z,-67.1
2022-09-01T16:15:54.161Z,-66.0
2022-09-01T16:21:01.062Z,-67.3
2022-09-01T16:26:08.900Z,-67.1
2022-09-01T16:31:16.114Z,-67.0
2022-09-01T16:36:23.301Z,-66.9
2022-09-01T16:41:30.563Z,-67.2
2022-09-01T16:46:37.695Z,-67.0
2022-09-01T16:51:44.908Z,-67.0
2022-09-01T16:56:52.869Z,-67.1
2022-09-01T17:02:07.489Z,-68.7
2022-09-01T17:07:15.079Z,-66.9
2022-09-01T17:15:27.466Z,-67.2
2022-09-01T17:20:33.368Z,-66.8
2022-09-01T17:25:40.986Z,-66.6
2022-09-01T17:30:48.291Z,-66.6
2022-09-01T17:35:55.429Z,-67.0
2022-09-01T17:41:02.985Z,-67.0
2022-09-01T17:46:10.193Z,-67.0
2022-09-01T17:51:17.374Z,-66.6
2022-09-01T17:56:28.459Z,-66.4
2022-09-01T18:01:35.470Z,-66.0
2022-09-01T18:06:42.825Z,-66.2
2022-09-01T18:11:50.651Z,-66.6
2022-09-01T18:16:57.855Z,-66.5
2022-09-01T18:22:06.176Z,-66.7
2022-09-01T18:27:14.240Z,-66.30001
2022-09-01T18:32:21.383Z,-66.30001
2022-09-01T18:37:29.496Z,-66.5
2022-09-01T18:42:37.111Z,-66.5
2022-09-01T18:47:45.006Z,-66.4
2022-09-01T18:52:52.741Z,-66.8
2022-09-01T18:58:00.875Z,-66.2
2022-09-01T19:03:09.001Z,-66.5
2022-09-01T19:08:17.427Z,-66.5
2022-09-01T19:13:24.099Z,-66.7
2022-09-01T19:18:31.436Z,-66.6
2022-09-01T19:23:38.484Z,-66.6
2022-09-01T19:28:45.693Z,-66.5
2022-09-01T19:33:54.073Z,-66.6
2022-09-01T19:39:00.942Z,-66.5
2022-09-01T19:44:09.373Z,-66.30001
2022-09-01T19:49:18.901Z,-66.5
2022-09-01T19:54:26.122Z,-66.6
2022-09-01T19:59:33.390Z,-66.7
2022-09-01T20:04:41.144Z,-66.6
2022-09-01T20:09:49.340Z,-66.5
2022-09-01T20:14:57.125Z,-66.4
2022-09-01T20:20:04.905Z,-66.2
2022-09-01T20:25:12.922Z,-66.1
2022-09-01T20:30:20.419Z,-66.1
2022-09-01T20:35:28.406Z,-66.0
2022-09-01T20:40:35.454Z,-66.30001
2022-09-01T20:45:42.652Z,-66.1
2022-09-01T20:50:50.505Z,-66.30001
2022-09-01T20:55:58.457Z,-66.30001
2022-09-01T21:01:05.906Z,-66.1
2022-09-01T21:06:13.438Z,-66.4
2022-09-01T21:11:21.273Z,-66.4
2022-09-01T21:16:28.658Z,-66.30001
2022-09-01T21:21:37.111Z,-66.30001
2022-09-01T21:26:44.681Z,-65.7
2022-09-01T21:31:51.295Z,-66.2
2022-09-01T21:36:59.711Z,-65.9
2022-09-01T21:42:07.241Z,-66.1
2022-09-01T21:47:16.148Z,-66.2
2022-09-01T21:52:24.085Z,-66.4
2022-09-01T21:57:31.909Z,-65.7
2022-09-01T22:02:40.499Z,-66.2
2022-09-01T22:07:49.253Z,-66.1
2022-09-01T22:12:57.272Z,-66.4
2022-09-01T22:18:15.350Z,-65.9
2022-09-01T22:23:24.310Z,-66.1
2022-09-01T22:28:32.675Z,-66.30001
2022-09-01T22:33:41.068Z,-65.5
2022-09-01T22:38:49.493Z,-66.0
2022-09-01T22:43:57.112Z,-66.0
2022-09-01T22:49:04.742Z,-66.0
2022-09-01T22:54:12.737Z,-66.30001
2022-09-01T22:59:20.566Z,-66.6
2022-09-01T23:04:28.883Z,-66.6
2022-09-01T23:09:37.192Z,-66.7
2022-09-01T23:14:44.141Z,-66.7
2022-09-01T23:19:51.669Z,-66.6
2022-09-01T23:24:59.591Z,-66.5
2022-09-01T23:30:07.411Z,-66.4
2022-09-01T23:35:15.460Z,-66.6
2022-09-01T23:40:22.663Z,-66.30001
2022-09-01T23:45:31.558Z,-66.4
2022-09-01T23:50:39.863Z,-66.8
2022-09-01T23:55:47.209Z,-66.8
